Georgia, New Jersey
Current Conditions -  °F | °C
As of 1:15 PM on Friday 19 Dec 2014 (Local Time) from KBLM Reporting Station
Overcast Overcast  
Wind Chill: 30°   Ceiling: 3500
Heat Index: 39°   Visibility: 10mi
Dew Point: 21°   Wind: 18mph
Humidity: 49%   Direction: 330°NNW
Pressure: 30.03"   Gusts: NA
Location:  40.2229°N, 74.3007°W
Report Text: KBLM 191815Z AUTO 33016KT 10SM OVC035 04/M06 A3003 RMK AO1
Loading
Personal Weather Stations






























Interactive Weather Map New forecast layout! Learn more

10-Day Weather Forecast

Advertisements
Track Severe Weather on mobile